createdAt,value
2017-10-15T00:00:17.206Z,25.05
2017-10-15T00:02:46.046Z,24.58
2017-10-15T00:05:15.058Z,17.95
2017-10-15T00:07:44.197Z,19.45
2017-10-15T00:10:12.879Z,25.90
2017-10-15T00:12:41.722Z,21.95
2017-10-15T00:15:10.609Z,22.83
2017-10-15T00:17:39.473Z,15.63
2017-10-15T00:20:09.119Z,19.40
2017-10-15T00:22:39.481Z,18.27
2017-10-15T00:25:08.371Z,16.00
2017-10-15T00:27:38.068Z,23.73
2017-10-15T00:30:06.844Z,22.02
2017-10-15T00:32:37.887Z,17.00
2017-10-15T00:35:07.038Z,17.37
2017-10-15T00:37:37.086Z,24.30
2017-10-15T00:40:06.823Z,18.45
2017-10-15T00:42:36.626Z,18.65
2017-10-15T00:45:05.504Z,22.37
2017-10-15T00:47:34.833Z,24.63
2017-10-15T00:50:04.066Z,20.42
2017-10-15T00:52:34.251Z,24.50
2017-10-15T00:55:04.628Z,29.12
2017-10-15T00:57:32.868Z,24.12
2017-10-15T01:00:01.323Z,19.37
2017-10-15T01:07:44.417Z,21.08
2017-10-15T01:10:15.010Z,19.70
2017-10-15T01:12:44.819Z,24.00
2017-10-15T01:15:14.538Z,20.15
2017-10-15T01:17:46.232Z,19.42
2017-10-15T01:29:34.706Z,15.65
2017-10-15T01:41:31.795Z,19.62
2017-10-15T01:44:22.353Z,22.00
2017-10-15T06:45:00.047Z,10.18
2017-10-15T06:50:27.485Z,12.52
2017-10-15T06:55:43.233Z,13.93
2017-10-15T06:58:14.765Z,10.88
2017-10-15T07:00:43.892Z,7.75
2017-10-15T07:03:12.779Z,10.43
2017-10-15T07:05:42.579Z,7.18
2017-10-15T07:08:11.283Z,8.00
2017-10-15T07:10:39.820Z,9.17
2017-10-15T07:13:08.380Z,7.83
2017-10-15T07:15:36.942Z,10.40
2017-10-15T07:18:08.484Z,9.40
2017-10-15T07:20:37.862Z,5.27
2017-10-15T07:23:06.441Z,6.20
2017-10-15T07:25:35.083Z,5.70
2017-10-15T07:28:03.877Z,5.43
2017-10-15T07:30:32.459Z,9.23
2017-10-15T07:33:01.060Z,6.27
2017-10-15T07:35:29.548Z,6.50
2017-10-15T07:37:58.246Z,4.80
2017-10-15T07:40:27.544Z,5.10
2017-10-15T07:42:56.295Z,5.40
2017-10-15T07:45:25.312Z,4.87
2017-10-15T07:47:53.853Z,5.23
2017-10-15T08:01:04.035Z,5.73
2017-10-15T08:16:48.372Z,5.30
2017-10-15T08:19:17.641Z,4.03
2017-10-15T08:21:46.135Z,5.13
2017-10-15T08:24:14.648Z,5.57
2017-10-15T08:26:43.186Z,4.63
2017-10-15T08:29:12.594Z,5.70
2017-10-15T08:31:52.671Z,4.27
2017-10-15T08:34:27.886Z,7.07
2017-10-15T08:51:17.600Z,5.67
2017-10-15T09:10:16.199Z,2.17
2017-10-15T12:19:24.141Z,5.03
2017-10-15T12:49:12.508Z,5.87
2017-10-15T12:52:00.962Z,5.53
2017-10-15T12:55:15.275Z,5.07
2017-10-15T13:01:25.277Z,6.20
2017-10-15T13:04:02.339Z,5.67
2017-10-15T13:07:06.317Z,5.70
2017-10-15T13:09:35.720Z,4.90
2017-10-15T13:12:04.279Z,5.80
2017-10-15T13:14:32.840Z,9.77
2017-10-15T13:17:01.256Z,4.67
2017-10-15T13:19:29.880Z,6.43
2017-10-15T13:21:58.486Z,5.17
2017-10-15T13:24:27.181Z,4.63
2017-10-15T13:30:16.988Z,6.13
2017-10-15T13:36:07.883Z,9.77
2017-10-15T13:42:03.541Z,5.20
2017-10-15T14:21:32.469Z,5.40
2017-10-15T14:24:20.978Z,5.77
2017-10-15T14:36:01.994Z,4.70
2017-10-15T14:44:56.314Z,7.93
2017-10-15T14:53:19.959Z,4.80
2017-10-15T16:10:01.574Z,9.80
2017-10-15T16:12:30.068Z,19.70
2017-10-15T16:14:58.387Z,8.40
2017-10-15T16:17:26.716Z,17.40
2017-10-15T16:19:55.170Z,8.90
2017-10-15T16:22:23.644Z,9.20
2017-10-15T16:24:56.816Z,11.37
2017-10-15T16:27:26.308Z,12.80
2017-10-15T16:29:54.814Z,11.20
2017-10-15T16:32:23.347Z,14.83
2017-10-15T16:34:51.848Z,11.00
2017-10-15T16:37:20.404Z,10.90
2017-10-15T16:39:48.870Z,11.20
2017-10-15T16:42:17.338Z,12.13
2017-10-15T16:44:45.784Z,10.50
2017-10-15T16:47:14.331Z,11.77
2017-10-15T16:49:42.790Z,8.50
2017-10-15T16:52:11.309Z,12.87
2017-10-15T16:54:40.735Z,13.13
2017-10-15T16:57:09.043Z,14.20
2017-10-15T16:59:38.107Z,12.00
2017-10-15T17:02:06.416Z,12.40
2017-10-15T17:04:35.142Z,13.60
2017-10-15T17:10:01.136Z,12.90
2017-10-15T17:12:29.446Z,14.53
2017-10-15T17:14:57.707Z,13.37
2017-10-15T17:17:26.363Z,16.90
2017-10-15T17:19:54.710Z,15.07
2017-10-15T17:22:22.996Z,22.83
2017-10-15T17:24:51.523Z,25.00
2017-10-15T17:27:21.341Z,17.13
2017-10-15T17:29:49.894Z,20.20
2017-10-15T17:32:18.426Z,20.73
2017-10-15T17:34:46.702Z,18.50
2017-10-15T17:37:14.984Z,19.73
2017-10-15T17:39:43.569Z,19.90
2017-10-15T17:42:11.850Z,16.53
2017-10-15T17:44:40.460Z,12.73
2017-10-15T17:47:08.998Z,14.43
2017-10-15T17:49:49.334Z,17.93
2017-10-15T17:52:17.864Z,25.30
2017-10-15T17:54:46.397Z,17.50
2017-10-15T17:57:14.952Z,21.97
2017-10-15T17:59:43.218Z,16.90
2017-10-15T18:05:12.791Z,16.03
2017-10-15T18:07:41.249Z,24.40
2017-10-15T18:10:09.744Z,50.87
2017-10-15T18:12:38.218Z,53.93
2017-10-15T18:15:06.680Z,55.50
2017-10-15T18:17:35.162Z,51.73
2017-10-15T18:20:03.655Z,41.90
2017-10-15T18:22:31.957Z,38.33
2017-10-15T18:25:00.229Z,33.00
2017-10-15T18:27:28.512Z,21.40
2017-10-15T18:29:56.799Z,23.03
2017-10-15T18:32:25.336Z,27.50
2017-10-15T18:34:53.833Z,23.10
2017-10-15T18:37:22.407Z,24.93
2017-10-15T18:39:50.884Z,23.20
2017-10-15T18:42:19.373Z,42.83
2017-10-15T18:44:47.875Z,36.03
2017-10-15T18:47:16.175Z,33.00
2017-10-15T18:49:45.442Z,42.17
2017-10-15T18:52:15.689Z,31.10
2017-10-15T18:54:44.172Z,26.10
2017-10-15T18:57:12.726Z,23.30
2017-10-15T18:59:41.292Z,20.47
2017-10-15T19:02:09.820Z,43.27
2017-10-15T19:04:38.532Z,26.47
2017-10-15T19:07:08.522Z,23.13
2017-10-15T19:09:37.074Z,23.53
2017-10-15T19:12:05.707Z,20.60
2017-10-15T19:14:34.266Z,20.27
2017-10-15T19:17:03.639Z,23.10
2017-10-15T19:19:32.378Z,22.60
2017-10-15T19:22:01.015Z,17.47
2017-10-15T19:24:29.486Z,16.27
2017-10-15T19:26:58.068Z,19.00
2017-10-15T19:29:26.315Z,21.03
2017-10-15T19:31:54.694Z,22.97
2017-10-15T19:34:24.138Z,19.90
2017-10-15T19:36:53.588Z,20.62
2017-10-15T19:39:21.922Z,18.63
2017-10-15T19:41:50.605Z,17.33
2017-10-15T19:44:19.289Z,17.10
2017-10-15T19:46:47.731Z,24.50
2017-10-15T19:49:16.266Z,17.83
2017-10-15T19:51:44.801Z,15.23
2017-10-15T19:54:13.177Z,20.50
2017-10-15T19:56:41.985Z,19.08
2017-10-15T19:59:10.703Z,16.13
2017-10-15T20:01:39.076Z,14.30
2017-10-15T20:04:07.929Z,17.65
2017-10-15T20:06:36.451Z,16.00
2017-10-15T20:09:04.268Z,18.00
2017-10-15T20:11:32.840Z,18.40
2017-10-15T20:14:01.387Z,16.13
2017-10-15T20:16:29.761Z,13.63
2017-10-15T20:18:58.519Z,20.70
2017-10-15T20:21:26.890Z,17.10
2017-10-15T20:23:55.251Z,22.30
2017-10-15T20:26:23.817Z,18.70
2017-10-15T20:28:52.331Z,15.83
2017-10-15T20:31:21.160Z,19.92
2017-10-15T20:33:50.743Z,18.92
2017-10-15T20:36:19.546Z,20.60
2017-10-15T20:38:48.420Z,25.42
2017-10-15T20:41:17.169Z,14.70
2017-10-15T20:43:45.940Z,16.23
2017-10-15T20:46:14.487Z,15.97
2017-10-15T20:48:43.248Z,14.60
2017-10-15T20:51:12.051Z,15.45
2017-10-15T20:53:40.706Z,16.70
2017-10-15T20:56:09.227Z,15.37
2017-10-15T20:58:37.778Z,17.77
2017-10-15T21:01:06.676Z,15.73
2017-10-15T21:03:35.455Z,16.40
2017-10-15T21:06:03.986Z,14.43
2017-10-15T21:08:32.867Z,16.87
2017-10-15T21:11:01.711Z,19.23
2017-10-15T21:13:31.275Z,20.62
2017-10-15T21:15:59.860Z,14.60
2017-10-15T21:18:28.408Z,14.57
2017-10-15T21:20:57.681Z,14.20
2017-10-15T21:23:26.534Z,18.25
2017-10-15T21:25:55.326Z,17.50
2017-10-15T21:28:24.631Z,15.70
2017-10-15T21:30:53.516Z,17.23
2017-10-15T21:33:22.284Z,16.83
2017-10-15T21:35:51.101Z,16.70
2017-10-15T21:38:19.910Z,16.65
2017-10-15T21:40:50.939Z,17.58
2017-10-15T21:43:19.295Z,19.13
2017-10-15T21:45:47.990Z,17.98
2017-10-15T21:48:16.738Z,18.80
2017-10-15T21:50:45.555Z,14.50
2017-10-15T21:53:14.087Z,20.83
2017-10-15T21:55:42.615Z,14.50
2017-10-15T21:58:11.492Z,19.35
2017-10-15T22:00:40.024Z,15.90
2017-10-15T22:03:08.835Z,18.95
2017-10-15T22:05:38.384Z,17.85
2017-10-15T22:08:07.095Z,14.40
2017-10-15T22:10:35.738Z,14.13
2017-10-15T22:13:04.275Z,14.47
2017-10-15T22:15:33.236Z,15.88
2017-10-15T22:18:01.855Z,18.37
2017-10-15T22:20:51.196Z,20.77
2017-10-15T22:23:20.031Z,15.00
2017-10-15T22:25:49.618Z,14.43
2017-10-15T22:28:19.403Z,12.95
2017-10-15T22:30:48.273Z,13.30
2017-10-15T22:33:17.093Z,14.75
2017-10-15T22:35:45.956Z,14.07
2017-10-15T22:38:14.823Z,12.73
2017-10-15T22:40:43.447Z,15.50
2017-10-15T22:43:14.135Z,26.40
2017-10-15T22:45:43.031Z,20.02
2017-10-15T22:48:11.976Z,13.40
2017-10-15T22:50:40.859Z,13.55
2017-10-15T22:53:09.616Z,16.95
2017-10-15T22:55:38.955Z,14.32
2017-10-15T22:58:07.854Z,14.80
2017-10-15T23:00:36.271Z,14.07
2017-10-15T23:03:05.856Z,11.25
2017-10-15T23:05:34.751Z,16.30
2017-10-15T23:08:03.599Z,15.98
2017-10-15T23:11:00.434Z,12.63
2017-10-15T23:13:29.236Z,13.50
2017-10-15T23:15:58.063Z,12.43
2017-10-15T23:18:26.917Z,17.60
2017-10-15T23:20:55.721Z,16.10
2017-10-15T23:23:24.492Z,13.38
2017-10-15T23:25:53.297Z,13.35
2017-10-15T23:28:22.077Z,20.85
2017-10-15T23:30:50.865Z,14.82
2017-10-15T23:33:19.740Z,13.95
2017-10-15T23:35:49.315Z,13.23
2017-10-15T23:38:18.344Z,12.55
2017-10-15T23:40:47.308Z,15.50
2017-10-15T23:43:16.881Z,14.65
2017-10-15T23:45:45.688Z,15.93
2017-10-15T23:48:14.549Z,17.55
2017-10-15T23:50:43.359Z,16.98
2017-10-15T23:53:12.220Z,12.88
2017-10-15T23:55:41.191Z,12.82
2017-10-15T23:58:09.953Z,18.20
